< < Back
Terminal Aerodrome Forecast


Current Version              Previous Versions:   1  2  3  4  5  6  7  8  9  

Terminal Aerodrome Forecast

280
FTUS44 KBMX 192300
TAFANB
TAF
KANB 192331Z 2000/2024 36013G18KT P6SM SCT060 BKN080
     FM200300 05008KT P6SM BKN080
     FM200900 07006KT P6SM SCT080=

Latest METAR

630
SAUS70 KWBC 210400 RRA
MTRANB
METAR KANB 210353Z AUTO 00000KT 10SM CLR 13/11 A3016 RMK AO2 SLP211
T01280106


USA.gov is the U.S. government's official web portal to all federal, state and local government web resources and services.